Airfield :
LOGIN :

Register | Disclaimer

   EN    FR    IT 

 










Legend :    VFR   Marginal VFR   IFR   Intensive IFR   Very Intensive IFR
Visi :
Ceiling :
>= 8 km
>= 3000ft
5 to 8 km
1000 to 3000 ft
1500m to 5 km
500 to 1000 ft
800 to 1500m
200 to 500 ft
< 800m
< 200 ft
Symbols :   Thunderstorms  Fog  Heavy snow  Heavy precipitations  Wind > 20 kt
SIGMETs :     Misc.  Thunderstorms  Icing  Turbulence  Mountain Waves  Volcanic Ashes






- Airport Elevation : 634 ft
- IATA code : MXX


ESKM - Mora

CURRENT METAR :
  • 141620Z AUTO 11005KT 9999 R16/P2000N R34///// -RA FEW010/// OVC014/// 13/13 Q1011 REDZ

EXPIRED METARs :
  • 141550Z AUTO 09005KT 9999 R16/P2000N R34///// -DZ BKN013/// BKN025/// OVC070/// 13/13 Q1012
  • 141520Z AUTO 10004KT 9999 R16/P2000N R34///// -DZ ///////// 13/13 Q1012
  • 141450Z AUTO 09004KT 9999 R16/P2000N R34///// -DZ BKN011/// BKN020/// OVC070/// 13/13 Q1012 REDZ
  • 141420Z AUTO 15003KT 9999 R16/P2000N R34///// -DZ ///////// 14/13 Q1012
  • 141350Z AUTO 14003KT 110V180 9999 R16/P2000N R34///// DZ FEW011/// BKN049/// OVC068/// 14/13 Q1012 REDZ

TAF N/A



MET'MAP, your aeronautical weather chart ! - Copyright ORBIFLY December 2007 - Disclaimer

ORBIFLY MET'MAP TEAM :

Programming & Development : Alexandra Zaïnal
Concept & original design : Baudouin d'Aumeries
Assistance for programming : Marc-Olivier Méhu
Technical & hardware support : Manuel Goepfert

Contact : metmap@orbifly.com




SOURCES & CREDITS :

   NOAA